Decoded Metar for PABE (BETHEL in AK, USA) (IATA:BET) | Meteo·Mobile Aviation Weather
aviador You're here:

PABE Decoded Metar

BETHEL in AK, USA
Report Time2019-01-16 17:53:00
UTC Time2019-01-16 17:58:47
Flight Rules vfr VFR
Wind010° at 14 kt
W.Decomp.*RWY 01: 13.6 kt HW 3.4 kt LCW
RWY 30: 7.8 kt HW 11.6 kt RCW
W.Rank010° ranks 3
Current wind is above 010° avg. (9.6)
Visibility9999 m
Phenomena:N/A
Clouds:N/A
Expected CloudBase > 800 ft AGL from Temp-Dew spread
CeilingNone
Temp-14°C (ISA -29)
Dew Point-16°C (85% RH)
AAT-22.5°C
QNH1001 hPa
Density Alt-3,051 ft
Elevation135 ft
Report Wrong Elevation
Raw Report
METAR PABE 161753Z 01014KT 10SM CLR M14/M16 A2955 RMK AO2 SLP007
T11391156 11100 21139 56017=

Extra information for PABE:More info

Metar Taf Metar & Taf Last 4 Metars F.Rules Stats Wind Profile Meteogram Temp Stats Airport Information Weather charts Add Link Nearby VenuesMetar ALERT Operation Metar Decoded Social comments

AIRNAV info for PABE